Time;durP1;ratioP1;P1;durP2;ratioP2;P2;SDS_P1;SDS_P2;PMS_P1;PMS_P2;Temp;Humidity;BMP_temperature;BMP_pressure;BME280_temperature;BME280_humidity;BME280_pressure;Samples;Min_cycle;Max_cycle;Signal;HPM_P1;HPM_P2
2023/03/08 00:00:50;;;;;;;10.77;6.35;;;;;;;0.52;100.00;99431.63;4941138;29;20108;-78
2023/03/08 00:03:17;;;;;;;9.75;6.18;;;;;;;0.52;100.00;99428.22;4941291;29;20134;-77
2023/03/08 00:05:43;;;;;;;12.02;6.45;;;;;;;0.54;100.00;99426.34;4941706;29;20075;-79
2023/03/08 00:08:11;;;;;;;10.02;6.57;;;;;;;0.55;100.00;99430.56;4941186;29;20131;-80
2023/03/08 00:10:38;;;;;;;9.23;6.30;;;;;;;0.51;100.00;99440.28;4940246;29;20055;-76
2023/03/08 00:13:04;;;;;;;14.25;6.47;;;;;;;0.52;100.00;99433.38;4941542;29;20128;-79
2023/03/08 00:15:31;;;;;;;12.68;6.50;;;;;;;0.53;100.00;99422.97;4940019;29;20126;-78
2023/03/08 00:17:58;;;;;;;11.55;6.45;;;;;;;0.52;100.00;99421.31;4938854;29;20052;-78
2023/03/08 00:20:24;;;;;;;11.93;6.35;;;;;;;0.45;100.00;99417.63;4938718;29;20048;-79
2023/03/08 00:22:51;;;;;;;10.43;6.35;;;;;;;0.44;100.00;99423.72;4939568;29;20126;-78
2023/03/08 00:25:19;;;;;;;12.27;6.75;;;;;;;0.43;100.00;99434.94;4940731;29;20103;-77
2023/03/08 00:27:45;;;;;;;10.15;6.60;;;;;;;0.42;100.00;99435.06;4941029;29;20494;-78
2023/03/08 00:30:14;;;;;;;12.68;6.68;;;;;;;0.51;100.00;99432.56;4940364;29;20146;-78
2023/03/08 00:32:40;;;;;;;15.85;6.78;;;;;;;0.47;100.00;99430.38;4940632;29;20083;-79
2023/03/08 00:35:08;;;;;;;9.68;6.65;;;;;;;0.44;100.00;99435.75;4941804;29;20095;-79
2023/03/08 00:37:35;;;;;;;10.90;6.72;;;;;;;0.37;100.00;99429.47;4941192;29;20574;-80
2023/03/08 00:40:02;;;;;;;10.65;6.13;;;;;;;0.37;100.00;99430.28;4940938;29;20135;-78
2023/03/08 00:42:30;;;;;;;9.45;6.65;;;;;;;0.35;100.00;99431.34;4939537;29;20047;-77
2023/03/08 00:44:57;;;;;;;9.07;6.20;;;;;;;0.33;100.00;99428.88;4938347;29;20191;-79
2023/03/08 00:47:23;;;;;;;11.63;6.50;;;;;;;0.35;100.00;99418.47;4937858;29;20098;-79
2023/03/08 00:49:50;;;;;;;11.80;6.72;;;;;;;0.37;100.00;99408.88;4941657;29;20047;-79
2023/03/08 00:52:16;;;;;;;11.15;6.75;;;;;;;0.36;100.00;99408.06;4938238;29;20147;-78
2023/03/08 00:54:43;;;;;;;12.75;6.68;;;;;;;0.35;100.00;99408.19;4938768;29;20094;-78
2023/03/08 00:57:18;;;;;;;10.07;6.47;;;;;;;0.36;100.00;99402.91;4938003;29;20059;-78
2023/03/08 00:59:46;;;;;;;14.30;7.82;;;;;;;0.41;100.00;99411.09;4939589;29;20054;-78
2023/03/08 01:02:13;;;;;;;15.00;7.22;;;;;;;0.37;100.00;99396.81;4939718;29;20086;-79
2023/03/08 01:04:39;;;;;;;13.00;7.03;;;;;;;0.48;100.00;99401.91;4939294;29;20079;-78
2023/03/08 01:07:06;;;;;;;9.13;6.80;;;;;;;0.52;100.00;99397.34;4939908;29;20090;-79
2023/03/08 01:09:32;;;;;;;12.98;7.78;;;;;;;0.53;100.00;99404.94;4941230;29;20090;-80
2023/03/08 01:11:59;;;;;;;11.80;7.28;;;;;;;0.56;100.00;99398.72;4941879;29;20051;-79
2023/03/08 01:14:26;;;;;;;11.98;7.10;;;;;;;0.54;100.00;99406.56;4938893;29;20051;-79
2023/03/08 01:16:54;;;;;;;14.38;8.50;;;;;;;0.54;100.00;99393.72;4937562;29;20051;-79
2023/03/08 01:19:20;;;;;;;15.07;8.27;;;;;;;0.48;100.00;99386.47;4937553;29;20143;-77
2023/03/08 01:21:47;;;;;;;14.73;7.78;;;;;;;0.52;100.00;99387.03;4937546;29;20442;-77
2023/03/08 01:24:14;;;;;;;12.52;7.63;;;;;;;0.52;100.00;99393.00;4938363;29;20059;-78
2023/03/08 01:26:40;;;;;;;10.18;7.03;;;;;;;0.50;100.00;99379.44;4941776;29;20134;-79
2023/03/08 01:29:07;;;;;;;13.02;8.23;;;;;;;0.50;100.00;99394.06;4940279;29;20143;-78
2023/03/08 01:31:34;;;;;;;15.98;7.57;;;;;;;0.47;100.00;99384.06;4941582;29;20505;-79
2023/03/08 01:34:02;;;;;;;13.52;8.73;;;;;;;0.50;100.00;99388.91;4941316;29;20135;-78
2023/03/08 01:36:28;;;;;;;14.65;8.15;;;;;;;0.52;100.00;99382.72;4942403;29;20055;-78
2023/03/08 01:38:55;;;;;;;12.05;7.18;;;;;;;0.53;100.00;99383.53;4938238;29;20119;-77
2023/03/08 01:41:24;;;;;;;13.23;8.23;;;;;;;0.50;100.00;99383.78;4937785;29;20138;-78
2023/03/08 01:43:51;;;;;;;13.10;7.90;;;;;;;0.49;100.00;99371.84;4937992;29;20048;-78
2023/03/08 01:46:24;;;;;;;15.13;7.88;;;;;;;0.50;100.00;99369.16;4936830;29;20055;-77
2023/03/08 01:48:54;;;;;;;14.65;7.78;;;;;;;0.47;100.00;99364.28;4937551;29;20063;-77
2023/03/08 01:51:28;;;;;;;14.10;7.72;;;;;;;0.48;100.00;99365.06;4937862;29;20119;-78
2023/03/08 01:54:00;;;;;;;14.75;8.25;;;;;;;0.41;100.00;99364.75;4937867;29;20055;-78
2023/03/08 01:56:30;;;;;;;14.23;8.50;;;;;;;0.32;100.00;99350.88;4963423;23;20111;-81
2023/03/08 01:58:58;;;;;;;15.35;8.23;;;;;;;0.27;100.00;99350.41;4988245;28;20047;-81
2023/03/08 02:01:25;;;;;;;12.68;8.23;;;;;;;0.20;100.00;99330.44;4988547;28;20080;-80
2023/03/08 02:03:52;;;;;;;15.15;8.93;;;;;;;0.10;100.00;99320.06;4990616;28;20047;-81
2023/03/08 02:06:21;;;;;;;14.32;9.10;;;;;;;0.22;100.00;99333.72;4989395;28;20113;-78
2023/03/08 02:08:52;;;;;;;15.38;8.00;;;;;;;0.21;100.00;99335.47;4989822;28;20051;-80
2023/03/08 02:11:20;;;;;;;13.50;8.35;;;;;;;0.28;100.00;99328.91;4989948;28;20054;-81
2023/03/08 02:13:48;;;;;;;14.75;8.20;;;;;;;0.23;100.00;99331.00;4991021;28;20101;-78
2023/03/08 02:16:16;;;;;;;14.02;8.05;;;;;;;0.22;100.00;99334.53;4989882;28;20394;-81
2023/03/08 02:18:51;;;;;;;13.77;8.50;;;;;;;0.23;100.00;99331.00;4990030;28;20093;-80
2023/03/08 02:21:19;;;;;;;16.85;8.13;;;;;;;0.24;100.00;99327.50;4989219;28;20105;-80
2023/03/08 02:23:47;;;;;;;12.38;8.10;;;;;;;0.33;100.00;99324.19;4988227;28;20071;-78
2023/03/08 02:26:14;;;;;;;14.93;8.13;;;;;;;0.37;100.00;99329.09;4988215;28;20050;-81
2023/03/08 02:28:43;;;;;;;16.52;8.38;;;;;;;0.37;100.00;99332.50;4987163;28;20050;-78
2023/03/08 02:31:10;;;;;;;15.88;8.07;;;;;;;0.35;100.00;99328.41;4985801;28;20098;-80
2023/03/08 02:33:39;;;;;;;13.55;8.05;;;;;;;0.37;100.00;99326.53;4987094;28;20172;-81
2023/03/08 02:36:11;;;;;;;12.38;7.53;;;;;;;0.40;100.00;99329.69;4986888;28;20066;-77
2023/03/08 02:38:40;;;;;;;14.98;7.97;;;;;;;0.22;100.00;99290.78;4987155;28;20050;-81
2023/03/08 02:41:08;;;;;;;11.38;7.43;;;;;;;0.30;100.00;99303.84;4986902;28;20058;-80
2023/03/08 02:43:36;;;;;;;13.88;7.50;;;;;;;0.40;100.00;99316.00;4984854;28;20054;-80
2023/03/08 02:46:03;;;;;;;14.77;7.88;;;;;;;0.33;100.00;99303.63;4983800;28;20078;-81
2023/03/08 02:48:32;;;;;;;13.77;7.85;;;;;;;0.39;100.00;99304.88;4985094;28;20118;-80
2023/03/08 02:50:59;;;;;;;13.10;7.88;;;;;;;0.40;100.00;99305.69;4985956;28;20365;-81
2023/03/08 02:53:26;;;;;;;13.23;7.40;;;;;;;0.42;100.00;99306.41;4986179;28;20492;-82
2023/03/08 02:55:52;;;;;;;12.05;7.43;;;;;;;0.43;100.00;99300.31;4986166;28;20085;-80
2023/03/08 02:58:21;;;;;;;11.98;7.15;;;;;;;0.36;100.00;99294.84;4984879;28;20109;-78
2023/03/08 03:00:47;;;;;;;14.00;7.40;;;;;;;0.42;100.00;99294.34;4985442;28;20050;-80
2023/03/08 03:03:14;;;;;;;13.10;8.02;;;;;;;0.29;100.00;99288.53;4985427;28;20047;-79
2023/03/08 03:05:45;;;;;;;12.82;7.75;;;;;;;0.34;100.00;99286.44;4984940;28;20102;-80
2023/03/08 03:08:12;;;;;;;11.38;7.45;;;;;;;0.21;100.00;99294.31;4984325;28;20074;-78
2023/03/08 03:10:40;;;;;;;11.50;7.15;;;;;;;0.16;100.00;99287.88;4985623;28;20047;-81
2023/03/08 03:13:09;;;;;;;15.07;7.40;;;;;;;0.16;100.00;99282.75;4985947;28;20050;-81
2023/03/08 03:15:39;;;;;;;11.48;7.88;;;;;;;0.12;100.00;99274.44;4986456;28;20149;-80
2023/03/08 03:18:06;;;;;;;14.38;8.45;;;;;;;0.10;100.00;99271.19;4978641;28;20096;-78
2023/03/08 03:20:33;;;;;;;17.23;9.25;;;;;;;0.06;100.00;99254.38;4986582;28;20073;-80
2023/03/08 03:23:02;;;;;;;15.63;9.00;;;;;;;0.10;100.00;99263.47;4992296;28;20046;-80
2023/03/08 03:25:29;;;;;;;15.70;9.60;;;;;;;-0.01;100.00;99251.50;4991033;28;20062;-82
2023/03/08 03:27:55;;;;;;;14.75;9.02;;;;;;;0.01;100.00;99259.06;4992387;28;20069;-79
2023/03/08 03:30:22;;;;;;;16.83;10.25;;;;;;;0.06;100.00;99258.69;4993510;28;20158;-78
2023/03/08 03:32:50;;;;;;;19.83;9.50;;;;;;;0.03;100.00;99249.47;4995870;28;20074;-81
2023/03/08 03:35:17;;;;;;;19.33;10.98;;;;;;;0.02;100.00;99247.84;4994516;28;20051;-81
2023/03/08 03:37:44;;;;;;;16.67;10.40;;;;;;;-0.05;100.00;99239.00;4992554;28;20047;-82
2023/03/08 03:40:18;;;;;;;18.02;11.32;;;;;;;-0.10;100.00;99233.41;4994286;28;20429;-79
2023/03/08 03:43:04;;;;;;;18.05;10.52;;;;;;;-0.06;100.00;99239.94;4993653;28;20071;-79
2023/03/08 03:45:37;;;;;;;21.70;11.43;;;;;;;0.03;100.00;99252.03;4993056;28;20047;-80
2023/03/08 03:48:07;;;;;;;18.45;10.88;;;;;;;0.05;100.00;99254.50;4985307;28;20109;-82
2023/03/08 03:50:40;;;;;;;20.00;11.45;;;;;;;0.03;100.00;99246.09;4992182;28;20046;-81
2023/03/08 03:53:10;;;;;;;20.80;12.48;;;;;;;0.02;100.00;99250.41;4984882;28;20058;-80
2023/03/08 03:55:36;;;;;;;24.60;13.13;;;;;;;0.00;100.00;99245.38;4992614;28;20047;-79
2023/03/08 03:58:03;;;;;;;26.60;13.75;;;;;;;-0.03;100.00;99245.66;4993680;28;20055;-82
2023/03/08 04:00:30;;;;;;;25.73;14.18;;;;;;;-0.04;100.00;99236.31;4992062;28;20055;-82
2023/03/08 04:02:56;;;;;;;28.45;15.10;;;;;;;-0.07;100.00;99226.28;4992747;28;20047;-77
2023/03/08 04:05:24;;;;;;;30.42;15.65;;;;;;;-0.08;100.00;99219.50;4990106;28;20061;-81
2023/03/08 04:07:51;;;;;;;32.25;15.48;;;;;;;-0.08;100.00;99223.81;4989460;28;20102;-80
2023/03/08 04:10:18;;;;;;;28.50;16.83;;;;;;;-0.08;100.00;99234.09;4991441;28;20086;-78
2023/03/08 04:12:48;;;;;;;30.90;16.60;;;;;;;-0.10;100.00;99230.84;4988787;28;20498;-79
2023/03/08 04:15:15;;;;;;;33.35;16.30;;;;;;;-0.11;100.00;99227.44;4988266;28;20047;-78
2023/03/08 04:17:50;;;;;;;32.75;17.92;;;;;;;-0.12;100.00;99222.44;4988871;28;20382;-80
2023/03/08 04:20:24;;;;;;;37.45;17.08;;;;;;;-0.09;100.00;99219.63;4987100;28;20047;-80
2023/03/08 04:23:02;;;;;;;36.80;16.67;;;;;;;-0.15;100.00;99213.22;4986115;28;20149;-80
2023/03/08 04:25:31;;;;;;;38.42;17.67;;;;;;;-0.12;100.00;99214.72;4986869;28;20242;-78
2023/03/08 04:28:02;;;;;;;40.35;18.92;;;;;;;-0.22;100.00;99188.09;4987608;28;20149;-79
2023/03/08 04:30:45;;;;;;;33.72;18.02;;;;;;;-0.17;100.00;99183.41;4986210;28;20061;-77
2023/03/08 04:33:12;;;;;;;35.95;17.35;;;;;;;-0.22;100.00;99175.25;4980135;28;20050;-77
2023/03/08 04:35:40;;;;;;;35.50;17.48;;;;;;;-0.29;100.00;99164.66;4982076;28;20057;-77
2023/03/08 04:38:11;;;;;;;35.20;18.17;;;;;;;-0.13;100.00;99185.63;4980254;28;20059;-80
2023/03/08 04:41:00;;;;;;;40.00;18.80;;;;;;;-0.07;100.00;99189.44;4979380;28;20553;-79
2023/03/08 04:43:25;;;;;;;43.97;20.00;;;;;;;-0.16;100.00;99177.34;4972039;28;20162;-77
2023/03/08 04:45:51;;;;;;;43.40;18.60;;;;;;;-0.19;100.00;99159.59;4976989;28;20134;-76
2023/03/08 04:48:20;;;;;;;48.03;19.65;;;;;;;-0.12;100.00;99158.97;4976981;28;20082;-79
2023/03/08 04:50:54;;;;;;;44.58;19.38;;;;;;;-0.17;100.00;99142.28;4977847;28;20097;-79
2023/03/08 04:53:23;;;;;;;45.65;20.05;;;;;;;-0.14;100.00;99149.75;4978244;28;20461;-78
2023/03/08 04:55:51;;;;;;;39.10;18.80;;;;;;;-0.18;100.00;99138.91;4977637;28;20113;-79
2023/03/08 04:58:21;;;;;;;43.15;18.20;;;;;;;-0.12;100.00;99140.16;4977210;28;20465;-77
2023/03/08 05:00:48;;;;;;;35.88;18.15;;;;;;;-0.16;100.00;99133.63;4977384;28;20078;-77
2023/03/08 05:03:15;;;;;;;36.72;18.55;;;;;;;-0.12;100.00;99135.00;4977617;28;20134;-78
2023/03/08 05:05:46;;;;;;;36.20;17.85;;;;;;;-0.12;100.00;99135.00;4978310;28;20129;-80
2023/03/08 05:08:15;;;;;;;36.67;18.35;;;;;;;-0.11;100.00;99127.19;4978394;28;20510;-79
2023/03/08 05:10:48;;;;;;;39.85;19.40;;;;;;;-0.14;100.00;99122.28;4979742;28;20051;-81
2023/03/08 05:13:15;;;;;;;38.85;18.45;;;;;;;-0.12;100.00;99124.72;4978299;28;20051;-80
2023/03/08 05:15:44;;;;;;;39.65;18.67;;;;;;;-0.13;100.00;99123.09;4982340;28;20078;-82
2023/03/08 05:18:11;;;;;;;35.35;17.23;;;;;;;-0.13;100.00;99110.25;4985335;28;20170;-80
2023/03/08 05:20:38;;;;;;;33.92;16.60;;;;;;;-0.18;100.00;99107.22;4983852;28;20061;-81
2023/03/08 05:23:07;;;;;;;36.47;17.65;;;;;;;-0.17;100.00;99107.09;4978268;28;20051;-79
2023/03/08 05:25:34;;;;;;;35.40;17.52;;;;;;;-0.25;100.00;99094.06;4984808;28;20161;-79
2023/03/08 05:28:21;;;;;;;39.35;19.83;;;;;;;-0.39;100.00;99071.22;4988248;23;20042;-78
2023/03/08 05:33:49;;;;;;;41.40;20.33;;;;;;;-0.20;100.00;99078.25;4984403;28;20066;-77
2023/03/08 05:36:17;;;;;;;39.33;19.30;;;;;;;-0.15;100.00;99074.38;4984881;28;20050;-80
2023/03/08 05:38:44;;;;;;;39.10;19.42;;;;;;;-0.11;100.00;99085.22;5006738;23;20054;-76
2023/03/08 05:41:13;;;;;;;39.95;19.88;;;;;;;-0.12;100.00;99057.88;4980733;28;20058;-78
2023/03/08 05:43:41;;;;;;;37.13;18.52;;;;;;;-0.13;100.00;99057.06;4978728;28;20051;-78
2023/03/08 05:46:11;;;;;;;40.97;20.50;;;;;;;-0.09;100.00;99052.50;4975744;28;20082;-78
2023/03/08 05:48:37;;;;;;;40.08;20.27;;;;;;;-0.13;100.00;99045.97;4973019;28;20229;-77
2023/03/08 05:51:06;;;;;;;42.42;20.88;;;;;;;-0.16;100.00;99035.94;4973978;28;20085;-78
2023/03/08 05:53:32;;;;;;;44.08;22.10;;;;;;;-0.13;100.00;99040.81;4974188;28;20734;-79
2023/03/08 05:56:08;;;;;;;39.53;21.48;;;;;;;-0.16;100.00;99034.19;4968448;28;20114;-79
2023/03/08 05:58:35;;;;;;;46.75;22.33;;;;;;;-0.14;100.00;99027.16;4969597;28;20054;-78
2023/03/08 06:01:13;;;;;;;41.38;22.02;;;;;;;-0.18;100.00;99018.06;4964556;28;20481;-79
2023/03/08 06:03:41;;;;;;;41.70;22.13;;;;;;;-0.10;100.00;99015.69;4972289;28;20469;-78
2023/03/08 06:06:11;;;;;;;38.90;20.45;;;;;;;-0.11;100.00;99005.53;4967688;28;20141;-78
2023/03/08 06:08:38;;;;;;;39.95;21.10;;;;;;;-0.16;100.00;98998.19;4967776;28;20066;-76
2023/03/08 06:11:05;;;;;;;39.50;20.95;;;;;;;-0.18;100.00;98997.50;4973651;28;20177;-76
2023/03/08 06:13:32;;;;;;;39.47;21.30;;;;;;;-0.18;100.00;98981.25;4963507;28;20087;-78
2023/03/08 06:16:00;;;;;;;43.45;21.98;;;;;;;-0.19;100.00;98977.88;4965624;28;20093;-77
2023/03/08 06:18:28;;;;;;;39.70;20.65;;;;;;;-0.15;100.00;98976.69;4966524;28;20078;-76
2023/03/08 06:20:57;;;;;;;43.67;21.33;;;;;;;-0.18;100.00;98966.66;4967026;28;20089;-78
2023/03/08 06:23:24;;;;;;;44.92;20.92;;;;;;;-0.14;100.00;98951.78;4975180;28;20060;-77
2023/03/08 06:25:54;;;;;;;41.55;20.60;;;;;;;-0.06;100.00;98949.38;4964437;28;20050;-77
2023/03/08 06:28:21;;;;;;;45.28;21.48;;;;;;;-0.12;100.00;98939.63;4969032;28;20433;-76
2023/03/08 06:30:49;;;;;;;45.03;21.00;;;;;;;-0.20;100.00;98945.41;4970049;28;20068;-77
2023/03/08 06:33:16;;;;;;;50.20;22.48;;;;;;;-0.16;100.00;98944.19;4967683;28;20058;-78
2023/03/08 06:35:54;;;;;;;41.03;20.70;;;;;;;-0.08;100.00;98935.84;4965279;28;20130;-78
2023/03/08 06:38:21;;;;;;;49.13;20.85;;;;;;;-0.11;100.00;98942.06;4964844;28;20047;-78
2023/03/08 06:40:47;;;;;;;42.85;20.83;;;;;;;-0.13;100.00;98930.28;4965004;28;20141;-79
2023/03/08 06:43:14;;;;;;;45.50;18.50;;;;;;;-0.17;100.00;98923.78;4975102;28;20137;-78
2023/03/08 06:45:41;;;;;;;38.58;18.33;;;;;;;-0.15;100.00;98920.13;4969226;28;20090;-78
2023/03/08 06:48:09;;;;;;;43.72;19.45;;;;;;;-0.13;100.00;98912.28;4959224;28;20050;-78
2023/03/08 06:50:35;;;;;;;35.42;17.08;;;;;;;-0.11;100.00;98905.25;4971069;28;20106;-78
2023/03/08 06:53:03;;;;;;;31.70;15.90;;;;;;;-0.14;100.00;98896.03;4955385;28;20082;-78
2023/03/08 06:55:30;;;;;;;34.70;16.65;;;;;;;-0.01;100.00;98896.63;4968087;28;20743;-78
2023/03/08 06:57:57;;;;;;;37.92;16.08;;;;;;;0.00;100.00;98887.16;4964604;28;20150;-79
2023/03/08 07:00:23;;;;;;;30.33;15.90;;;;;;;0.06;100.00;98883.22;4972555;28;20146;-78
2023/03/08 07:02:50;;;;;;;32.03;15.18;;;;;;;0.10;100.00;98871.72;4961585;28;20142;-79
2023/03/08 07:05:17;;;;;;;27.38;14.68;;;;;;;0.07;100.00;98883.09;4972033;28;20064;-80
2023/03/08 07:07:43;;;;;;;28.10;14.45;;;;;;;0.00;100.00;98866.59;4962256;28;20506;-79
2023/03/08 07:10:14;;;;;;;34.30;15.23;;;;;;;0.07;100.00;98877.94;4959635;28;20051;-79
2023/03/08 07:12:42;;;;;;;32.33;15.10;;;;;;;0.13;100.00;98876.59;4961263;28;20094;-80
2023/03/08 07:15:13;;;;;;;36.20;15.98;;;;;;;0.15;100.00;98877.28;4975249;28;20121;-77
2023/03/08 07:17:40;;;;;;;32.08;17.10;;;;;;;0.19;100.00;98858.06;4966542;28;20051;-77
2023/03/08 07:20:08;;;;;;;34.00;16.77;;;;;;;0.42;100.00;98856.88;4956242;28;20079;-77
2023/03/08 07:22:35;;;;;;;33.88;15.48;;;;;;;0.51;100.00;98862.97;4966829;28;20130;-77
2023/03/08 07:25:01;;;;;;;31.20;16.80;;;;;;;0.37;100.00;98860.81;4963693;28;20604;-77
2023/03/08 07:27:31;;;;;;;35.17;16.48;;;;;;;0.25;100.00;98863.50;4967247;28;20046;-77
2023/03/08 07:29:58;;;;;;;33.05;16.77;;;;;;;0.27;100.00;98847.94;4969040;28;20074;-78
2023/03/08 07:32:27;;;;;;;34.22;17.15;;;;;;;0.18;100.00;98846.97;4970989;28;20109;-80
2023/03/08 07:34:54;;;;;;;36.13;18.35;;;;;;;0.19;100.00;98846.03;4962814;28;20126;-78
2023/03/08 07:37:21;;;;;;;36.55;17.73;;;;;;;0.32;100.00;98841.44;4969236;28;20046;-79
2023/03/08 07:39:47;;;;;;;33.30;17.58;;;;;;;0.24;100.00;98822.47;4965093;28;20475;-78
2023/03/08 07:42:14;;;;;;;33.17;17.90;;;;;;;0.29;100.00;98828.03;4974224;28;20125;-79
2023/03/08 07:44:42;;;;;;;31.92;16.50;;;;;;;0.32;100.00;98833.72;4978492;28;20134;-79
2023/03/08 07:47:09;;;;;;;36.15;17.67;;;;;;;0.35;100.00;98829.25;4966569;28;20149;-79
2023/03/08 07:49:36;;;;;;;33.83;17.88;;;;;;;0.37;100.00;98824.78;4970522;28;20108;-80
2023/03/08 07:52:03;;;;;;;30.52;16.83;;;;;;;0.36;100.00;98821.41;4966649;28;20126;-79
2023/03/08 07:54:29;;;;;;;29.08;16.27;;;;;;;0.35;100.00;98819.78;4966483;28;20134;-80
2023/03/08 07:56:56;;;;;;;30.92;16.90;;;;;;;0.33;100.00;98817.34;4968780;28;20051;-81
2023/03/08 07:59:23;;;;;;;32.40;17.23;;;;;;;0.31;100.00;98816.66;4968302;28;20094;-80
2023/03/08 08:01:51;;;;;;;36.13;18.95;;;;;;;0.36;100.00;98805.97;4967693;28;20561;-77
2023/03/08 08:04:18;;;;;;;31.58;18.45;;;;;;;0.44;100.00;98808.69;4967265;28;20055;-75
2023/03/08 08:06:44;;;;;;;36.20;18.85;;;;;;;0.45;100.00;98796.63;4968304;28;20075;-79
2023/03/08 08:09:13;;;;;;;36.38;17.85;;;;;;;0.54;100.00;98790.63;4973956;28;20103;-78
2023/03/08 08:11:39;;;;;;;33.22;19.38;;;;;;;0.52;100.00;98790.78;4969626;28;20047;-77
2023/03/08 08:14:06;;;;;;;34.90;19.35;;;;;;;0.64;100.00;98788.88;4972771;28;20134;-78
2023/03/08 08:16:33;;;;;;;34.03;17.85;;;;;;;0.60;100.00;98792.66;4976390;28;20138;-78
2023/03/08 08:19:01;;;;;;;32.33;19.10;;;;;;;0.65;100.00;98781.00;4973736;28;20449;-79
2023/03/08 08:21:28;;;;;;;31.17;19.00;;;;;;;0.61;100.00;98768.56;4971568;28;20518;-79
2023/03/08 08:23:56;;;;;;;31.25;17.50;;;;;;;0.50;100.00;98771.28;4976111;28;20047;-80
2023/03/08 08:26:23;;;;;;;29.58;18.23;;;;;;;0.62;100.00;98759.88;4983857;28;20428;-78
2023/03/08 08:28:52;;;;;;;30.15;16.60;;;;;;;0.77;100.00;98758.50;4973412;28;20099;-79
2023/03/08 08:31:21;;;;;;;28.90;16.63;;;;;;;0.65;100.00;98749.31;4993202;28;20085;-79
2023/03/08 08:33:48;;;;;;;26.90;16.05;;;;;;;0.83;100.00;98742.50;4987108;28;20138;-78
2023/03/08 08:36:18;;;;;;;25.98;15.55;;;;;;;0.76;100.00;98736.28;4975861;28;20137;-79
2023/03/08 08:38:45;;;;;;;28.30;16.83;;;;;;;0.83;100.00;98727.03;4970273;28;20130;-81
2023/03/08 08:41:17;;;;;;;27.23;15.80;;;;;;;0.98;100.00;98741.06;4974798;28;20058;-81
2023/03/08 08:43:45;;;;;;;29.08;18.00;;;;;;;1.23;100.00;98731.09;4972754;28;20078;-79
2023/03/08 08:46:12;;;;;;;26.70;15.85;;;;;;;1.36;100.00;98726.41;4974205;28;20146;-81
2023/03/08 09:40:41;;;;;;;26.20;16.00;;;;;;;1.44;100.00;98662.03;4828424;29;20065;-80
2023/03/08 09:47:01;;;;;;;26.45;16.90;;;;;;;1.53;100.00;98656.03;4818069;29;20093;-78
2023/03/08 09:52:10;;;;;;;28.25;16.63;;;;;;;1.58;100.00;98653.81;4972208;23;20043;-88
2023/03/08 09:54:38;;;;;;;25.13;16.33;;;;;;;1.54;100.00;98654.25;4957579;29;20059;-88
2023/03/08 09:57:10;;;;;;;25.05;16.55;;;;;;;1.54;100.00;98655.06;4956712;29;20051;-88
2023/03/08 09:59:43;;;;;;;26.48;16.90;;;;;;;1.37;100.00;98645.56;4957972;28;20078;-88
2023/03/08 10:02:23;;;;;;;26.38;16.88;;;;;;;1.40;100.00;98658.16;4951352;29;20562;-89
2023/03/08 10:04:58;;;;;;;29.35;17.98;;;;;;;1.45;100.00;98660.28;4960229;28;20081;-89
2023/03/08 10:07:35;;;;;;;28.63;17.20;;;;;;;1.37;100.00;98647.34;4959710;29;20095;-89
2023/03/08 10:10:24;;;;;;;26.38;17.48;;;;;;;1.36;100.00;98654.25;4959091;28;20047;-89
2023/03/08 10:13:01;;;;;;;29.00;17.40;;;;;;;1.35;100.00;98660.38;4957804;29;20138;-88
2023/03/08 10:15:31;;;;;;;27.35;17.83;;;;;;;1.31;100.00;98646.16;4958207;28;20079;-88
2023/03/08 10:18:02;;;;;;;28.83;17.40;;;;;;;1.38;100.00;98636.88;4960434;28;20075;-88
2023/03/08 10:20:32;;;;;;;28.23;17.10;;;;;;;1.44;100.00;98633.69;4958639;28;20415;-88
2023/03/08 10:23:01;;;;;;;33.40;17.13;;;;;;;1.48;100.00;98632.44;4958411;29;20229;-88
2023/03/08 10:25:30;;;;;;;29.30;18.08;;;;;;;1.53;100.00;98634.59;4958732;28;20051;-88
2023/03/08 10:27:58;;;;;;;32.30;18.77;;;;;;;1.46;100.00;98638.69;4957788;28;20047;-88
2023/03/08 10:30:27;;;;;;;27.77;17.55;;;;;;;1.58;100.00;98633.19;4957738;28;20437;-89
2023/03/08 10:32:59;;;;;;;30.15;17.08;;;;;;;1.64;100.00;98627.44;4958670;28;20549;-89
2023/03/08 10:35:36;;;;;;;28.83;18.35;;;;;;;1.61;100.00;98630.31;4959051;29;20055;-89
2023/03/08 10:38:03;;;;;;;27.83;17.83;;;;;;;1.65;100.00;98636.81;4958919;28;20052;-89
2023/03/08 10:40:30;;;;;;;27.83;17.38;;;;;;;1.63;100.00;98643.88;4958819;28;20051;-89
2023/03/08 10:43:04;;;;;;;30.33;18.30;;;;;;;1.72;100.00;98615.59;4960462;28;20057;-90
2023/03/08 10:45:32;;;;;;;27.30;17.08;;;;;;;1.83;100.00;98639.38;4961034;28;20055;-90
2023/03/08 10:48:01;;;;;;;26.13;17.80;;;;;;;1.63;100.00;98601.81;4966850;28;20046;-90
2023/03/08 10:50:29;;;;;;;26.92;18.85;;;;;;;1.67;100.00;98624.56;4961038;28;20106;-90
2023/03/08 10:53:09;;;;;;;26.27;17.83;;;;;;;1.84;100.00;98625.53;4962653;28;20055;-91
2023/03/08 10:55:43;;;;;;;25.02;16.60;;;;;;;1.84;100.00;98609.25;4961458;28;20047;-90
2023/03/08 10:58:33;;;;;;;27.52;17.98;;;;;;;1.87;100.00;98608.94;4960687;28;20391;-91
2023/03/08 11:01:03;;;;;;;29.55;17.48;;;;;;;1.97;100.00;98614.78;4961065;28;20059;-91
2023/03/08 11:03:30;;;;;;;29.65;18.55;;;;;;;2.12;100.00;98609.91;4962632;28;20048;-90
2023/03/08 11:05:59;;;;;;;25.40;17.33;;;;;;;2.19;100.00;98593.66;4964203;28;20079;-90
2023/03/08 11:08:30;;;;;;;28.20;17.23;;;;;;;2.39;100.00;98599.41;4963321;29;20086;-90
2023/03/08 11:11:05;;;;;;;25.58;16.80;;;;;;;2.35;100.00;98581.81;4963142;28;20284;-90
2023/03/08 11:13:37;;;;;;;23.73;17.10;;;;;;;2.22;100.00;98582.25;4961692;28;20047;-90
2023/03/08 11:16:34;;;;;;;26.70;17.40;;;;;;;2.38;100.00;98587.47;4962566;28;20055;-90
2023/03/08 11:19:13;;;;;;;25.83;17.52;;;;;;;2.34;100.00;98575.84;4960101;28;20491;-90
2023/03/08 11:21:51;;;;;;;27.40;17.95;;;;;;;2.44;100.00;98580.88;4961002;28;20051;-90
2023/03/08 11:24:30;;;;;;;24.40;17.95;;;;;;;2.25;100.00;98569.84;4961884;28;20080;-90
2023/03/08 11:27:11;;;;;;;29.48;17.95;;;;;;;2.19;100.00;98557.53;4961636;28;20055;-89
2023/03/08 11:29:47;;;;;;;26.30;18.30;;;;;;;2.50;100.00;98562.19;4961811;28;20047;-89
2023/03/08 11:32:28;;;;;;;26.20;18.67;;;;;;;2.50;100.00;98577.69;4962648;28;20079;-91
2023/03/08 11:35:40;;;;;;;29.23;19.25;;;;;;;2.49;100.00;98568.31;4964952;28;20051;-90
2023/03/08 11:38:15;;;;;;;26.88;18.40;;;;;;;2.53;100.00;98587.72;4963791;28;20059;-91
2023/03/08 11:48:47;;;;;;;26.27;17.92;;;;;;;3.00;100.00;98555.25;5004652;23;20086;-82
2023/03/08 11:51:37;;;;;;;25.65;17.70;;;;;;;3.14;100.00;98564.16;4985278;28;20109;-80
2023/03/08 11:54:16;;;;;;;25.65;18.25;;;;;;;3.23;100.00;98572.75;4983599;28;20047;-81
2023/03/08 11:56:47;;;;;;;23.88;17.30;;;;;;;3.18;100.00;98555.13;4983931;28;20055;-80
2023/03/08 11:59:25;;;;;;;24.42;17.58;;;;;;;3.19;100.00;98540.44;4984574;28;20113;-80
2023/03/08 12:01:57;;;;;;;26.20;17.33;;;;;;;3.65;100.00;98560.47;5055831;23;20546;-80
2023/03/08 12:04:35;;;;;;;21.35;16.33;;;;;;;3.62;100.00;98571.16;5020140;28;20050;-80
2023/03/08 12:07:08;;;;;;;22.70;16.17;;;;;;;3.52;100.00;98567.91;5017187;28;20057;-79
2023/03/08 12:09:40;;;;;;;22.08;15.82;;;;;;;3.48;100.00;98558.84;5017419;28;20056;-80
2023/03/08 12:12:14;;;;;;;22.02;15.38;;;;;;;3.51;100.00;98557.72;4993975;28;20069;-78
2023/03/08 12:14:49;;;;;;;21.40;15.70;;;;;;;3.62;100.00;98547.06;4992525;28;20046;-78
2023/03/08 12:17:20;;;;;;;21.42;16.05;;;;;;;3.41;100.00;98552.72;4992244;28;20085;-81
2023/03/08 12:19:50;;;;;;;22.42;15.90;;;;;;;3.62;100.00;98542.72;4992570;28;20101;-80
2023/03/08 12:22:42;;;;;;;22.42;16.85;;;;;;;3.58;100.00;98544.00;4983390;28;20509;-78
2023/03/08 12:25:20;;;;;;;24.23;16.92;;;;;;;3.66;100.00;98553.53;4993355;28;20113;-80
2023/03/08 12:27:51;;;;;;;21.67;16.02;;;;;;;3.69;100.00;98549.81;4997947;28;20056;-79
2023/03/08 12:30:26;;;;;;;21.80;16.75;;;;;;;3.52;100.00;98547.22;4994363;28;20057;-80
2023/03/08 12:32:55;;;;;;;21.33;15.82;;;;;;;3.42;100.00;98540.59;4995686;28;20133;-79
2023/03/08 12:35:29;;;;;;;21.38;16.05;;;;;;;3.44;100.00;98536.06;4981855;28;20077;-80
2023/03/08 12:37:58;;;;;;;22.55;15.23;;;;;;;3.39;100.00;98535.75;4996890;28;20042;-79